createdAt,value
2023-04-28T00:01:55.050Z,9.90
2023-04-28T00:04:22.783Z,9.20
2023-04-28T00:06:50.792Z,10.98
2023-04-28T00:09:18.615Z,9.27
2023-04-28T00:11:46.847Z,9.18
2023-04-28T00:14:14.699Z,10.18
2023-04-28T00:16:42.549Z,10.85
2023-04-28T00:19:10.462Z,9.38
2023-04-28T00:21:37.755Z,10.43
2023-04-28T00:24:05.976Z,8.35
2023-04-28T00:26:33.434Z,8.45
2023-04-28T00:29:00.810Z,8.63
2023-04-28T00:31:28.292Z,10.23
2023-04-28T00:33:55.780Z,9.05
2023-04-28T00:36:23.705Z,10.70
2023-04-28T00:38:51.428Z,8.55
2023-04-28T00:41:18.755Z,9.55
2023-04-28T00:43:50.081Z,8.05
2023-04-28T00:46:23.269Z,8.70
2023-04-28T00:48:51.263Z,6.80
2023-04-28T00:51:18.699Z,6.53
2023-04-28T00:53:46.916Z,6.22
2023-04-28T00:56:15.078Z,7.55
2023-04-28T00:58:43.661Z,5.13
2023-04-28T01:01:11.218Z,7.72
2023-04-28T01:03:41.322Z,4.53
2023-04-28T01:06:10.378Z,5.78
2023-04-28T01:08:39.523Z,4.70
2023-04-28T01:11:16.406Z,5.93
2023-04-28T01:14:02.668Z,5.57
2023-04-28T01:16:36.127Z,4.85
2023-04-28T01:19:05.405Z,6.72
2023-04-28T01:21:34.459Z,4.43
2023-04-28T01:26:38.085Z,5.60
2023-04-28T01:29:05.840Z,4.50
2023-04-28T01:31:33.333Z,7.57
2023-04-28T01:34:01.037Z,8.70
2023-04-28T01:36:28.651Z,9.50
2023-04-28T01:38:56.531Z,6.43
2023-04-28T01:41:25.440Z,6.47
2023-04-28T01:43:52.821Z,8.98
2023-04-28T01:46:20.501Z,8.60
2023-04-28T01:48:48.117Z,8.13
2023-04-28T01:51:15.841Z,10.40
2023-04-28T01:53:43.162Z,12.77
2023-04-28T01:56:12.514Z,11.50
2023-04-28T01:58:40.085Z,13.20
2023-04-28T02:01:08.501Z,11.63
2023-04-28T02:03:36.341Z,10.30
2023-04-28T02:06:05.155Z,13.60
2023-04-28T02:08:32.637Z,10.25
2023-04-28T02:11:01.596Z,13.20
2023-04-28T02:13:29.108Z,12.55
2023-04-28T02:16:01.750Z,13.63
2023-04-28T02:18:30.409Z,16.67
2023-04-28T02:21:10.027Z,16.65
2023-04-28T02:23:37.742Z,15.60
2023-04-28T02:26:06.767Z,17.33
2023-04-28T02:28:34.263Z,18.48
2023-04-28T02:31:09.537Z,18.75
2023-04-28T02:33:38.093Z,19.33
2023-04-28T02:36:06.682Z,20.83
2023-04-28T02:38:34.350Z,17.70
2023-04-28T02:41:06.450Z,19.80
2023-04-28T02:43:34.373Z,19.90
2023-04-28T02:46:03.788Z,16.65
2023-04-28T02:48:31.757Z,21.42
2023-04-28T02:50:59.182Z,20.92
2023-04-28T02:53:26.660Z,18.63
2023-04-28T02:55:54.288Z,16.50
2023-04-28T02:58:21.770Z,17.90
2023-04-28T03:00:49.325Z,19.65
2023-04-28T03:03:17.842Z,20.13
2023-04-28T03:05:46.099Z,21.45
2023-04-28T03:08:13.549Z,23.13
2023-04-28T03:10:41.101Z,26.50
2023-04-28T03:13:08.661Z,25.95
2023-04-28T03:15:36.246Z,22.08
2023-04-28T03:18:04.030Z,25.50
2023-04-28T03:20:31.481Z,20.92
2023-04-28T03:22:58.981Z,23.15
2023-04-28T03:25:26.393Z,24.95
2023-04-28T03:27:56.029Z,20.10
2023-04-28T03:30:23.383Z,21.90
2023-04-28T03:32:50.912Z,26.35
2023-04-28T03:35:18.341Z,20.77
2023-04-28T03:37:45.902Z,22.38
2023-04-28T03:40:14.030Z,23.73
2023-04-28T03:43:00.239Z,29.98
2023-04-28T03:45:33.308Z,17.80
2023-04-28T03:48:00.790Z,18.30
2023-04-28T03:50:28.753Z,19.92
2023-04-28T03:52:57.186Z,19.35
2023-04-28T03:55:26.244Z,17.63
2023-04-28T03:57:54.788Z,13.10
2023-04-28T04:00:22.207Z,13.80
2023-04-28T04:02:52.834Z,11.25
2023-04-28T04:05:20.808Z,9.55
2023-04-28T04:07:48.457Z,8.40
2023-04-28T04:10:15.865Z,8.77
2023-04-28T04:12:45.284Z,10.40
2023-04-28T04:15:12.921Z,9.98
2023-04-28T04:17:42.772Z,7.85
2023-04-28T04:20:10.558Z,7.45
2023-04-28T04:22:37.889Z,11.65
2023-04-28T04:25:05.641Z,8.88
2023-04-28T04:27:34.667Z,9.70
2023-04-28T04:30:02.309Z,8.82
2023-04-28T04:32:29.643Z,7.47
2023-04-28T04:34:57.505Z,13.63
2023-04-28T04:37:25.460Z,7.60
2023-04-28T04:39:58.655Z,8.45
2023-04-28T04:42:26.895Z,8.25
2023-04-28T04:45:08.186Z,7.55
2023-04-28T04:47:36.935Z,5.35
2023-04-28T04:50:04.593Z,2.30
2023-04-28T04:52:32.129Z,2.85
2023-04-28T04:55:00.184Z,2.22
2023-04-28T04:57:27.795Z,3.70
2023-04-28T05:00:17.010Z,2.75
2023-04-28T05:02:45.474Z,2.22
2023-04-28T05:05:21.143Z,2.17
2023-04-28T05:07:57.725Z,2.13
2023-04-28T05:10:25.460Z,2.40
2023-04-28T05:12:53.005Z,0.85
2023-04-28T05:15:20.371Z,2.47
2023-04-28T05:18:11.894Z,1.85
2023-04-28T05:20:39.479Z,1.17
2023-04-28T05:23:07.470Z,1.63
2023-04-28T05:25:35.031Z,2.47
2023-04-28T05:28:07.411Z,0.82
2023-04-28T05:30:35.606Z,3.72
2023-04-28T05:33:03.378Z,2.67
2023-04-28T05:35:31.640Z,9.60
2023-04-28T05:37:59.646Z,2.35
2023-04-28T05:40:28.152Z,2.15
2023-04-28T05:42:56.564Z,3.20
2023-04-28T05:45:24.022Z,4.13
2023-04-28T05:47:51.744Z,2.53
2023-04-28T05:50:19.402Z,2.33
2023-04-28T05:52:46.799Z,2.22
2023-04-28T05:55:14.603Z,1.65
2023-04-28T05:57:52.286Z,1.23
2023-04-28T06:00:22.059Z,1.52
2023-04-28T06:02:50.002Z,2.65
2023-04-28T06:05:18.425Z,1.40
2023-04-28T06:07:49.711Z,1.23
2023-04-28T06:10:18.785Z,2.45
2023-04-28T06:12:46.438Z,1.13
2023-04-28T06:15:14.239Z,1.77
2023-04-28T06:17:42.878Z,4.70
2023-04-28T06:20:13.191Z,1.20
2023-04-28T06:22:41.522Z,1.48
2023-04-28T06:25:09.465Z,7.68
2023-04-28T06:27:44.568Z,1.85
2023-04-28T06:30:19.503Z,0.90
2023-04-28T06:32:47.113Z,1.98
2023-04-28T06:35:17.489Z,1.15
2023-04-28T06:37:44.900Z,1.27
2023-04-28T06:40:12.498Z,2.88
2023-04-28T06:42:44.028Z,1.63
2023-04-28T06:45:14.441Z,2.78
2023-04-28T06:47:41.908Z,4.88
2023-04-28T06:50:10.467Z,1.90
2023-04-28T06:52:40.756Z,1.73
2023-04-28T06:55:12.289Z,2.13
2023-04-28T06:57:42.191Z,2.15
2023-04-28T07:00:11.068Z,1.50
2023-04-28T07:02:38.776Z,3.38
2023-04-28T07:05:06.837Z,2.72
2023-04-28T07:07:34.660Z,2.95
2023-04-28T07:10:02.259Z,2.25
2023-04-28T07:12:29.850Z,1.50
2023-04-28T07:14:57.261Z,3.80
2023-04-28T07:17:24.746Z,3.38
2023-04-28T07:19:52.169Z,6.90
2023-04-28T07:22:20.629Z,1.67
2023-04-28T07:24:47.959Z,4.40
2023-04-28T07:27:15.528Z,6.80
2023-04-28T07:29:42.787Z,5.35
2023-04-28T07:32:10.598Z,1.30
2023-04-28T07:34:38.514Z,4.28
2023-04-28T07:37:07.507Z,4.22
2023-04-28T07:39:35.567Z,1.60
2023-04-28T07:42:03.865Z,1.80
2023-04-28T07:44:31.691Z,3.97
2023-04-28T07:47:02.953Z,1.85
2023-04-28T07:49:30.759Z,2.22
2023-04-28T07:51:58.113Z,3.88
2023-04-28T07:54:26.120Z,5.57
2023-04-28T07:56:53.694Z,0.95
2023-04-28T07:59:21.268Z,0.63
2023-04-28T08:01:48.724Z,1.73
2023-04-28T08:04:16.756Z,1.20
2023-04-28T08:06:44.459Z,1.55
2023-04-28T08:09:11.899Z,2.10
2023-04-28T08:11:40.804Z,1.33
2023-04-28T08:14:08.201Z,3.97
2023-04-28T08:16:38.502Z,2.15
2023-04-28T08:19:06.120Z,2.47
2023-04-28T08:21:34.336Z,1.80
2023-04-28T08:24:01.937Z,2.00
2023-04-28T08:26:31.282Z,5.07
2023-04-28T08:28:58.777Z,4.03
2023-04-28T08:31:26.253Z,1.55
2023-04-28T08:33:55.555Z,0.47
2023-04-28T08:36:31.732Z,1.05
2023-04-28T08:39:03.259Z,4.30
2023-04-28T08:41:33.409Z,1.20
2023-04-28T08:44:00.764Z,0.88
2023-04-28T08:46:29.204Z,1.42
2023-04-28T08:49:02.262Z,1.55
2023-04-28T08:51:40.887Z,2.28
2023-04-28T08:54:25.529Z,0.63
2023-04-28T08:56:57.187Z,3.15
2023-04-28T08:59:24.833Z,2.67
2023-04-28T09:01:52.717Z,0.40
2023-04-28T09:04:21.292Z,2.85
2023-04-28T09:06:49.191Z,2.25
2023-04-28T09:09:26.882Z,1.90
2023-04-28T09:11:56.188Z,4.28
2023-04-28T09:14:24.171Z,1.23
2023-04-28T09:16:52.481Z,2.05
2023-04-28T09:19:20.191Z,2.42
2023-04-28T09:21:56.032Z,0.45
2023-04-28T09:24:31.571Z,5.43
2023-04-28T09:27:02.453Z,5.85
2023-04-28T09:29:31.870Z,0.63
2023-04-28T09:32:19.507Z,7.38
2023-04-28T09:34:49.068Z,0.73
2023-04-28T09:37:20.723Z,16.00
2023-04-28T09:39:50.944Z,1.20
2023-04-28T09:42:42.066Z,1.50
2023-04-28T09:45:11.860Z,2.63
2023-04-28T09:47:47.151Z,0.47
2023-04-28T09:50:17.312Z,4.43
2023-04-28T09:52:49.080Z,1.02
2023-04-28T09:55:17.963Z,1.45
2023-04-28T09:57:49.812Z,2.08
2023-04-28T10:00:18.852Z,0.70
2023-04-28T10:02:46.615Z,0.77
2023-04-28T10:05:17.238Z,0.73
2023-04-28T10:07:46.587Z,0.98
2023-04-28T10:10:14.878Z,2.08
2023-04-28T10:12:44.029Z,2.65
2023-04-28T10:15:13.545Z,2.28
2023-04-28T10:17:41.137Z,1.05
2023-04-28T10:20:11.355Z,2.58
2023-04-28T10:22:47.583Z,2.15
2023-04-28T10:25:32.115Z,1.10
2023-04-28T10:28:01.110Z,0.70
2023-04-28T10:30:30.320Z,6.03
2023-04-28T10:33:06.826Z,1.58
2023-04-28T10:35:36.409Z,0.73
2023-04-28T10:38:10.315Z,0.52
2023-04-28T10:40:39.397Z,0.85
2023-04-28T10:43:08.637Z,0.95
2023-04-28T10:45:56.512Z,1.17
2023-04-28T10:48:47.579Z,1.02
2023-04-28T10:51:14.865Z,0.80
2023-04-28T10:53:53.693Z,1.17
2023-04-28T10:56:24.980Z,2.45
2023-04-28T10:58:53.136Z,7.47
2023-04-28T11:01:26.346Z,1.58
2023-04-28T11:04:17.974Z,3.33
2023-04-28T11:06:47.041Z,1.95
2023-04-28T11:09:19.901Z,2.05
2023-04-28T11:12:06.958Z,2.08
2023-04-28T11:14:36.182Z,1.13
2023-04-28T11:17:13.587Z,1.48
2023-04-28T11:19:43.982Z,1.50
2023-04-28T11:22:15.692Z,0.75
2023-04-28T11:24:56.803Z,1.15
2023-04-28T11:27:25.652Z,2.25
2023-04-28T11:29:53.660Z,2.30
2023-04-28T11:32:34.962Z,1.45
2023-04-28T11:35:04.969Z,3.75
2023-04-28T11:37:32.414Z,1.13
2023-04-28T11:40:11.044Z,1.27
2023-04-28T11:42:48.529Z,1.15
2023-04-28T11:45:15.999Z,1.35
2023-04-28T11:47:43.430Z,4.97
2023-04-28T11:50:11.120Z,3.60
2023-04-28T11:52:53.592Z,0.98
2023-04-28T11:55:21.526Z,2.10
2023-04-28T11:57:49.034Z,1.60
2023-04-28T12:00:21.915Z,2.42
2023-04-28T12:02:49.784Z,1.10
2023-04-28T12:05:17.646Z,1.50
2023-04-28T12:07:46.061Z,5.20
2023-04-28T12:10:16.683Z,3.38
2023-04-28T12:12:51.714Z,2.67
2023-04-28T12:15:22.186Z,2.72
2023-04-28T12:17:51.615Z,5.35
2023-04-28T12:20:38.879Z,1.60
2023-04-28T12:23:07.827Z,0.80
2023-04-28T12:25:44.445Z,5.45
2023-04-28T12:28:11.978Z,0.83
2023-04-28T12:30:41.848Z,1.40
2023-04-28T12:33:26.946Z,0.95
2023-04-28T12:35:55.426Z,5.35
2023-04-28T12:38:26.029Z,6.20
2023-04-28T12:40:53.401Z,3.05
2023-04-28T12:43:23.483Z,4.97
2023-04-28T12:45:53.225Z,1.50
2023-04-28T12:48:21.156Z,2.30
2023-04-28T12:50:48.653Z,2.63
2023-04-28T12:53:16.179Z,3.35
2023-04-28T12:55:44.074Z,1.95
2023-04-28T12:58:11.501Z,2.10
2023-04-28T13:00:39.320Z,5.63
2023-04-28T13:03:06.942Z,4.40
2023-04-28T13:05:35.062Z,1.50
2023-04-28T13:08:02.524Z,2.22
2023-04-28T13:10:29.875Z,1.70
2023-04-28T13:12:57.224Z,2.80
2023-04-28T13:15:24.847Z,5.65
2023-04-28T13:17:52.183Z,1.20
2023-04-28T13:20:19.970Z,1.88
2023-04-28T13:22:47.315Z,1.90
2023-04-28T13:25:15.265Z,4.38
2023-04-28T13:27:43.502Z,2.05
2023-04-28T13:30:11.689Z,3.30
2023-04-28T13:32:39.012Z,6.15
2023-04-28T13:35:07.082Z,2.17
2023-04-28T13:37:34.389Z,1.95
2023-04-28T13:40:04.196Z,2.22
2023-04-28T13:42:31.749Z,2.97
2023-04-28T13:44:59.023Z,1.10
2023-04-28T13:47:26.684Z,2.85
2023-04-28T13:49:54.044Z,1.13
2023-04-28T13:52:22.540Z,1.98
2023-04-28T13:54:50.010Z,1.13
2023-04-28T13:57:17.490Z,2.42
2023-04-28T13:59:45.581Z,1.38
2023-04-28T14:02:13.160Z,2.17
2023-04-28T14:04:40.635Z,0.60
2023-04-28T14:07:08.826Z,3.65
2023-04-28T14:09:36.192Z,1.08
2023-04-28T14:12:03.625Z,2.72
2023-04-28T14:14:31.116Z,0.50
2023-04-28T14:16:59.027Z,1.00
2023-04-28T14:19:28.078Z,5.10
2023-04-28T14:21:55.572Z,1.13
2023-04-28T14:24:23.538Z,7.60
2023-04-28T14:26:51.157Z,0.85
2023-04-28T14:29:18.573Z,4.80
2023-04-28T14:31:46.135Z,6.53
2023-04-28T14:34:13.644Z,4.20
2023-04-28T14:36:42.250Z,1.88
2023-04-28T14:39:09.974Z,4.97
2023-04-28T14:41:37.439Z,1.77
2023-04-28T14:44:04.801Z,1.70
2023-04-28T14:46:32.282Z,0.80
2023-04-28T14:49:00.132Z,0.98
2023-04-28T14:51:27.736Z,1.15
2023-04-28T14:53:55.249Z,2.15
2023-04-28T14:56:23.031Z,2.15
2023-04-28T14:58:50.790Z,1.88
2023-04-28T15:01:19.160Z,1.95
2023-04-28T15:03:47.390Z,3.83
2023-04-28T15:06:15.007Z,3.65
2023-04-28T15:08:42.340Z,1.60
2023-04-28T15:11:10.874Z,1.80
2023-04-28T15:13:39.109Z,6.15
2023-04-28T15:16:07.554Z,1.98
2023-04-28T15:18:34.853Z,1.55
2023-04-28T15:21:02.583Z,1.85
2023-04-28T15:23:29.912Z,1.95
2023-04-28T15:25:57.241Z,3.47
2023-04-28T15:28:25.956Z,4.10
2023-04-28T15:30:53.590Z,2.38
2023-04-28T15:33:24.343Z,2.63
2023-04-28T15:35:52.596Z,4.95
2023-04-28T15:38:19.865Z,2.35
2023-04-28T15:40:47.805Z,2.70
2023-04-28T15:43:15.500Z,4.82
2023-04-28T15:45:44.930Z,3.05
2023-04-28T15:48:12.587Z,3.80
2023-04-28T15:50:40.344Z,7.38
2023-04-28T15:53:08.067Z,7.43
2023-04-28T15:55:35.996Z,2.60
2023-04-28T15:58:04.147Z,6.07
2023-04-28T16:00:33.241Z,3.97
2023-04-28T16:03:01.418Z,3.83
2023-04-28T16:05:29.339Z,3.15
2023-04-28T16:07:56.665Z,1.88
2023-04-28T16:10:24.166Z,4.00
2023-04-28T16:12:51.718Z,1.45
2023-04-28T16:15:19.103Z,3.17
2023-04-28T16:17:46.453Z,3.58
2023-04-28T16:20:13.785Z,2.53
2023-04-28T16:22:41.699Z,1.23
2023-04-28T16:25:10.474Z,3.28
2023-04-28T16:27:38.699Z,2.35
2023-04-28T16:30:07.436Z,2.10
2023-04-28T16:32:37.996Z,4.38
2023-04-28T16:35:06.471Z,3.72
2023-04-28T16:37:36.302Z,4.10
2023-04-28T16:40:04.605Z,2.95
2023-04-28T16:42:31.925Z,3.53
2023-04-28T16:44:59.792Z,3.15
2023-04-28T16:47:27.300Z,3.70
2023-04-28T16:49:54.650Z,7.68
2023-04-28T16:52:22.215Z,3.20
2023-04-28T16:54:49.487Z,4.88
2023-04-28T16:57:16.877Z,4.47
2023-04-28T16:59:44.248Z,4.63
2023-04-28T17:02:11.829Z,5.80
2023-04-28T17:04:39.408Z,4.55
2023-04-28T17:07:07.474Z,7.07
2023-04-28T17:09:34.796Z,2.75
2023-04-28T17:12:03.680Z,6.20
2023-04-28T17:14:31.167Z,5.95
2023-04-28T17:16:58.496Z,4.45
2023-04-28T17:19:26.694Z,4.82
2023-04-28T17:21:55.685Z,5.13
2023-04-28T17:24:23.798Z,5.90
2023-04-28T17:26:51.246Z,6.22
2023-04-28T17:29:19.052Z,6.65
2023-04-28T17:31:46.883Z,7.50
2023-04-28T17:34:14.577Z,6.45
2023-04-28T17:36:43.332Z,20.92
2023-04-28T17:39:10.860Z,18.60
2023-04-28T17:41:38.832Z,18.33
2023-04-28T17:44:06.739Z,101.35
2023-04-28T17:46:34.125Z,14.40
2023-04-28T17:49:01.550Z,26.73
2023-04-28T17:51:29.510Z,33.10
2023-04-28T17:53:57.201Z,9.05
2023-04-28T17:56:25.094Z,13.63
2023-04-28T17:58:52.573Z,10.80
2023-04-28T18:01:19.926Z,17.45
2023-04-28T18:03:48.261Z,11.23
2023-04-28T18:06:16.380Z,9.38
2023-04-28T18:08:43.728Z,13.02
2023-04-28T18:11:11.905Z,13.90
2023-04-28T18:13:39.582Z,13.00
2023-04-28T18:16:10.808Z,12.85
2023-04-28T18:18:38.248Z,12.20
2023-04-28T18:21:06.731Z,17.92
2023-04-28T18:23:34.618Z,12.45
2023-04-28T18:26:01.834Z,17.90
2023-04-28T18:28:29.434Z,14.45
2023-04-28T18:30:56.715Z,13.68
2023-04-28T18:33:28.517Z,13.52
2023-04-28T18:36:01.715Z,14.25
2023-04-28T18:38:30.972Z,18.08
2023-04-28T18:40:58.400Z,14.10
2023-04-28T18:43:27.874Z,18.85
2023-04-28T18:45:55.283Z,15.43
2023-04-28T18:48:23.511Z,21.27
2023-04-28T18:50:53.826Z,18.58
2023-04-28T18:53:21.305Z,27.02
2023-04-28T18:55:48.916Z,21.45
2023-04-28T18:58:16.766Z,22.98
2023-04-28T19:00:45.335Z,23.15
2023-04-28T19:03:14.091Z,22.73
2023-04-28T19:05:45.385Z,21.27
2023-04-28T19:08:13.235Z,25.35
2023-04-28T19:10:41.740Z,23.10
2023-04-28T19:13:09.001Z,24.23
2023-04-28T19:15:37.824Z,30.30
2023-04-28T19:18:05.283Z,21.20
2023-04-28T19:20:34.377Z,23.55
2023-04-28T19:23:03.097Z,23.38
2023-04-28T19:25:33.415Z,24.90
2023-04-28T19:28:00.892Z,25.95
2023-04-28T19:30:28.450Z,23.10
2023-04-28T19:32:56.317Z,24.83
2023-04-28T19:35:24.152Z,24.50
2023-04-28T19:37:51.873Z,25.05
2023-04-28T19:40:19.613Z,20.08
2023-04-28T19:42:47.234Z,21.67
2023-04-28T19:45:15.319Z,22.02
2023-04-28T19:47:43.055Z,22.67
2023-04-28T19:50:11.001Z,23.50
2023-04-28T19:52:39.138Z,26.48
2023-04-28T19:55:08.823Z,28.33
2023-04-28T19:57:36.547Z,31.95
2023-04-28T20:00:04.901Z,30.42
2023-04-28T20:02:35.469Z,30.52
2023-04-28T20:05:04.191Z,29.13
2023-04-28T20:07:32.057Z,28.92
2023-04-28T20:10:00.833Z,29.42
2023-04-28T20:12:28.956Z,30.73
2023-04-28T20:14:57.944Z,31.65
2023-04-28T20:17:25.448Z,30.58
2023-04-28T20:19:53.028Z,31.50
2023-04-28T20:22:20.724Z,32.95
2023-04-28T20:24:48.124Z,29.27
2023-04-28T20:27:15.700Z,27.35
2023-04-28T20:29:44.129Z,27.05
2023-04-28T20:32:11.680Z,25.15
2023-04-28T20:34:39.458Z,35.03
2023-04-28T20:37:08.084Z,25.80
2023-04-28T20:39:35.476Z,29.15
2023-04-28T20:42:03.113Z,33.13
2023-04-28T20:44:30.828Z,26.20
2023-04-28T20:46:59.169Z,29.83
2023-04-28T20:49:27.060Z,28.33
2023-04-28T20:52:01.595Z,32.58
2023-04-28T20:54:29.516Z,27.50
2023-04-28T20:56:56.781Z,31.73
2023-04-28T20:59:24.216Z,28.60
2023-04-28T21:01:51.638Z,28.58
2023-04-28T21:04:19.218Z,29.17
2023-04-28T21:06:50.234Z,27.60
2023-04-28T21:09:17.761Z,23.88
2023-04-28T21:11:45.114Z,25.95
2023-04-28T21:14:15.380Z,23.70
2023-04-28T21:16:45.704Z,25.35
2023-04-28T21:19:13.337Z,26.00
2023-04-28T21:21:41.057Z,27.30
2023-04-28T21:24:10.286Z,29.90
2023-04-28T21:26:37.806Z,25.67
2023-04-28T21:29:05.400Z,26.02
2023-04-28T21:31:32.862Z,24.23
2023-04-28T21:34:00.248Z,28.67
2023-04-28T21:36:28.291Z,23.77
2023-04-28T21:38:55.870Z,27.20
2023-04-28T21:41:25.157Z,27.02
2023-04-28T21:43:52.872Z,28.65
2023-04-28T21:46:20.330Z,30.52
2023-04-28T21:48:48.015Z,32.75
2023-04-28T21:51:16.824Z,26.60
2023-04-28T21:53:44.150Z,26.90
2023-04-28T21:56:11.803Z,33.58
2023-04-28T21:58:39.256Z,30.42
2023-04-28T22:01:08.134Z,27.13
2023-04-28T22:03:36.407Z,34.47
2023-04-28T22:06:04.111Z,27.20
2023-04-28T22:08:31.880Z,30.63
2023-04-28T22:11:00.430Z,29.10
2023-04-28T22:13:28.249Z,35.03
2023-04-28T22:15:56.422Z,30.30
2023-04-28T22:18:24.059Z,32.03
2023-04-28T22:20:51.456Z,28.95
2023-04-28T22:23:18.854Z,33.05
2023-04-28T22:25:46.402Z,32.15
2023-04-28T22:28:14.024Z,31.85
2023-04-28T22:30:42.510Z,32.72
2023-04-28T22:33:10.339Z,31.98
2023-04-28T22:35:37.715Z,34.13
2023-04-28T22:38:05.469Z,30.02
2023-04-28T22:40:33.077Z,30.67
2023-04-28T22:43:00.461Z,33.53
2023-04-28T22:45:28.704Z,38.97
2023-04-28T22:47:56.841Z,30.30
2023-04-28T22:50:25.117Z,33.40
2023-04-28T22:52:52.569Z,37.08
2023-04-28T22:55:20.330Z,36.95
2023-04-28T22:57:47.714Z,36.03
2023-04-28T23:00:16.312Z,32.78
2023-04-28T23:02:44.967Z,34.17
2023-04-28T23:05:12.763Z,34.63
2023-04-28T23:07:40.279Z,40.53
2023-04-28T23:10:08.455Z,36.65
2023-04-28T23:12:35.785Z,39.38
2023-04-28T23:15:03.450Z,37.15
2023-04-28T23:17:31.024Z,37.78
2023-04-28T23:19:58.418Z,38.00
2023-04-28T23:22:25.800Z,41.55
2023-04-28T23:24:53.320Z,37.53
2023-04-28T23:27:20.785Z,43.50
2023-04-28T23:29:49.480Z,43.25
2023-04-28T23:32:17.867Z,41.60
2023-04-28T23:34:45.798Z,40.67
2023-04-28T23:37:13.046Z,39.63
2023-04-28T23:39:40.370Z,40.75
2023-04-28T23:42:07.900Z,36.83
2023-04-28T23:44:35.249Z,44.33
2023-04-28T23:47:02.578Z,41.55
2023-04-28T23:49:30.044Z,38.70
2023-04-28T23:51:57.374Z,39.55
2023-04-28T23:54:24.683Z,36.90
2023-04-28T23:56:51.984Z,37.92
2023-04-28T23:59:20.913Z,43.25
